Terminal Aerodrome Forecast
Issued by NWS St Louis, MO

Home | Current Version | Previous Version | Text Only | Print | Product List | Glossary On
Versions: 1 2 3 4 5 6 7 8 9 10 11 12 13 14 15 16 17 18 19 20 21 22 23 24 25 26 27 28
275
FTUS43 KLSX 201126
TAFSTL
TAF
KSTL 201126Z 2012/2118 13008KT 6SM BR BKN250
      TEMPO 2012/2014 5SM BR
     FM201700 16014G22KT P6SM BKN250
     FM210100 16011KT P6SM VCSH BKN060
     FM210400 19009KT 5SM -SHRA OVC025
     FM211100 27005KT 5SM BR VCSH BKN040
     FM211500 28005KT P6SM BKN040=

USA.gov is the U.S. government's official web portal to all federal, state and local government web resources and services.